Gran Canaria - Aeropuerto en Canarias

latitud = 27° 55' 4''N | longitud = 015° 23' 43''W
32 metros sobre el nivel del mar |

Fecha, hora, temperatura, viento dirección y velocidad, humedad y presión.

  • 22-11-2017 08:00:00 | 19.90°C | Sudoeste |9.00 km/h | 33.00% | 1008.90 hPa
  • 22-11-2017 07:00:00 | 20.00°C | Sudoeste |12.00 km/h | 46.00% | 1008.40 hPa
  • 22-11-2017 06:00:00 | 19.00°C | Sudoeste |12.00 km/h | 67.00% | 1008.30 hPa
  • 22-11-2017 05:00:00 | 18.50°C | Sudoeste |8.00 km/h | 57.00% | 1008.80 hPa
  • 22-11-2017 04:00:00 | 18.90°C | Sudoeste |8.00 km/h | 52.00% | 1008.80 hPa
  • 22-11-2017 03:00:00 | 20.00°C | Sudoeste |6.00 km/h | 38.00% | 1009.20 hPa
  • 22-11-2017 02:00:00 | 19.60°C | Sudoeste |10.00 km/h | 47.00% | 1009.60 hPa
  • 22-11-2017 01:00:00 | 19.90°C | Sur |8.00 km/h | 71.00% | 1009.80 hPa
  • 22-11-2017 00:00:00 | 20.90°C | Sur |3.00 km/h | 61.00% | 1010.40 hPa
  • 21-11-2017 23:00:00 | 23.30°C | Sur |9.00 km/h | 19.00% | 1010.00 hPa
  • 21-11-2017 22:00:00 | 23.90°C | Sudoeste |9.00 km/h | 17.00% | 1010.10 hPa
  • 21-11-2017 21:00:00 | 23.30°C | Sudoeste |10.00 km/h | 19.00% | 1010.10 hPa
  • 21-11-2017 20:00:00 | 22.20°C | Sudoeste |12.00 km/h | 37.00% | 1010.40 hPa
  • 21-11-2017 19:00:00 | 21.80°C | Sur |8.00 km/h | 49.00% | 1010.50 hPa
  • 21-11-2017 18:00:00 | 23.00°C | Sur |10.00 km/h | 45.00% | 1010.50 hPa
  • 21-11-2017 17:00:00 | 23.30°C | Sur |15.00 km/h | 43.00% | 1010.50 hPa
  • 21-11-2017 16:00:00 | 24.30°C | Sur |16.00 km/h | 40.00% | 1010.40 hPa
  • 21-11-2017 15:00:00 | 25.50°C | Sur |17.00 km/h | 31.00% | 1010.50 hPa
  • 21-11-2017 14:00:00 | 25.30°C | Sur |17.00 km/h | 31.00% | 1010.90 hPa
  • 21-11-2017 13:00:00 | 25.60°C | Sur |17.00 km/h | 36.00% | 1011.80 hPa
  • 21-11-2017 12:00:00 | 25.10°C | Sur |17.00 km/h | 38.00% | 1012.90 hPa
  • 21-11-2017 11:00:00 | 23.70°C | Sudeste |14.00 km/h | 53.00% | 1013.60 hPa
  • 21-11-2017 10:00:00 | 25.20°C | Sur |14.00 km/h | 28.00% | 1013.30 hPa
  • 21-11-2017 09:00:00 | 24.50°C | Sudoeste |15.00 km/h | 25.00% | 1012.80 hPa